Time;durP1;ratioP1;P1;durP2;ratioP2;P2;SDS_P1;SDS_P2;PMS_P1;PMS_P2;Temp;Humidity;BMP_temperature;BMP_pressure;BME280_temperature;BME280_humidity;BME280_pressure;Samples;Min_cycle;Max_cycle;Signal;HPM_P1;HPM_P2
2022/06/24 00:01:38;;;;;;;11.98;5.13;;;24.00;99.90;;;;;;4128821;28;20402;-71
2022/06/24 00:03:39;;;;;;;11.02;5.43;;;23.90;99.90;;;;;;4129560;28;20030;-70
2022/06/24 00:05:39;;;;;;;11.82;6.20;;;23.80;99.90;;;;;;4128968;28;20050;-71
2022/06/24 00:07:48;;;;;;;10.68;4.68;;;23.70;99.90;;;;;;4128622;28;20123;-71
2022/06/24 00:09:49;;;;;;;10.32;5.00;;;23.60;99.90;;;;;;4127899;28;20039;-71
2022/06/24 00:12:08;;;;;;;11.43;4.82;;;23.60;99.90;;;;;;4126372;28;20517;-71
2022/06/24 00:14:11;;;;;;;9.88;4.63;;;23.60;99.90;;;;;;4128967;28;20031;-70
2022/06/24 00:16:12;;;;;;;8.13;4.85;;;23.60;99.90;;;;;;4127234;28;20031;-70
2022/06/24 00:18:15;;;;;;;6.18;4.50;;;23.50;99.90;;;;;;4128423;28;20125;-70
2022/06/24 00:20:18;;;;;;;7.30;4.20;;;23.40;99.90;;;;;;4128363;28;20392;-70
2022/06/24 00:22:19;;;;;;;;;;;23.30;99.90;;;;;;4129345;28;20034;-71
2022/06/24 00:24:22;;;;;;;7.10;3.85;;;23.40;99.90;;;;;;4128954;28;19909;-71
2022/06/24 00:26:40;;;;;;;6.85;3.92;;;23.40;99.90;;;;;;4128538;28;20030;-71
2022/06/24 00:28:41;;;;;;;5.43;4.00;;;23.50;99.90;;;;;;4128501;28;20084;-71
2022/06/24 00:30:50;;;;;;;11.15;5.88;;;23.50;99.90;;;;;;4128495;28;20445;-71
2022/06/24 00:32:51;;;;;;;6.50;4.07;;;23.50;99.90;;;;;;4129121;28;20045;-71
2022/06/24 00:35:05;;;;;;;8.95;4.57;;;23.50;99.90;;;;;;4128660;28;20046;-71
2022/06/24 00:37:22;;;;;;;10.68;6.00;;;23.50;99.90;;;;;;4128694;28;20397;-71
2022/06/24 00:39:35;;;;;;;7.97;5.78;;;23.40;99.90;;;;;;4128539;28;20458;-71
2022/06/24 00:41:36;;;;;;;12.23;6.30;;;23.20;99.90;;;;;;4128457;28;20489;-70
2022/06/24 00:43:42;;;;;;;9.45;5.85;;;23.10;99.90;;;;;;4128222;28;20042;-71
2022/06/24 00:45:48;;;;;;;10.13;5.18;;;23.10;99.90;;;;;;4128752;28;20030;-71
2022/06/24 00:47:49;;;;;;;10.15;6.00;;;23.00;99.90;;;;;;4126186;28;20042;-72
2022/06/24 00:49:53;;;;;;;7.13;4.93;;;22.90;99.90;;;;;;4127885;28;20340;-72
2022/06/24 00:51:54;;;;;;;12.63;5.82;;;22.90;99.90;;;;;;4127192;28;20148;-70
2022/06/24 00:53:55;;;;;;;12.55;5.88;;;22.90;99.90;;;;;;4128559;28;20517;-71
2022/06/24 00:55:56;;;;;;;10.85;5.22;;;22.90;99.90;;;;;;4127936;28;20038;-71
2022/06/24 00:57:58;;;;;;;9.57;4.90;;;22.90;99.90;;;;;;4127998;28;20030;-72
2022/06/24 01:00:00;;;;;;;5.13;4.38;;;22.90;99.90;;;;;;4126962;28;20117;-72
2022/06/24 01:02:05;;;;;;;5.65;4.28;;;23.00;99.90;;;;;;4127974;28;20066;-72
2022/06/24 01:04:08;;;;;;;4.97;4.00;;;23.00;99.90;;;;;;4128096;28;20061;-71
2022/06/24 01:06:09;;;;;;;8.60;5.10;;;23.00;99.90;;;;;;4127857;28;20038;-70
2022/06/24 01:08:12;;;;;;;7.82;4.75;;;23.10;99.90;;;;;;4128383;28;20501;-71
2022/06/24 01:10:13;;;;;;;6.70;3.88;;;23.10;99.90;;;;;;4125718;28;20179;-71
2022/06/24 01:12:14;;;;;;;9.13;4.18;;;23.10;99.90;;;;;;4127698;28;20038;-71
2022/06/24 01:14:14;;;;;;;6.82;4.10;;;23.20;99.90;;;;;;4128664;28;20057;-71
2022/06/24 01:16:15;;;;;;;9.93;4.63;;;23.20;99.90;;;;;;4127860;28;20069;-71
2022/06/24 01:18:16;;;;;;;10.85;4.38;;;23.30;99.90;;;;;;4127920;28;20045;-71
2022/06/24 01:20:17;;;;;;;9.25;5.45;;;23.30;99.90;;;;;;4126629;28;20113;-70
2022/06/24 01:22:25;;;;;;;9.23;5.18;;;23.30;99.90;;;;;;4126282;28;20116;-70
2022/06/24 01:24:26;;;;;;;10.90;6.22;;;23.20;99.90;;;;;;4125017;28;20030;-68
2022/06/24 01:26:26;;;;;;;14.38;6.50;;;23.10;99.90;;;;;;4125529;28;20035;-68
2022/06/24 01:28:27;;;;;;;11.05;5.45;;;23.00;99.90;;;;;;4125587;28;20027;-69
2022/06/24 01:30:28;;;;;;;12.50;6.53;;;22.80;99.90;;;;;;4127128;28;20049;-68
2022/06/24 01:32:29;;;;;;;11.82;5.43;;;22.60;99.90;;;;;;4122953;28;20031;-68
2022/06/24 01:34:29;;;;;;;11.32;5.95;;;22.40;99.90;;;;;;4126942;28;20046;-68
2022/06/24 01:36:30;;;;;;;9.43;5.20;;;22.10;99.90;;;;;;4125676;28;20030;-68
2022/06/24 01:38:31;;;;;;;10.48;5.25;;;21.90;99.90;;;;;;4123772;28;20100;-68
2022/06/24 01:40:32;;;;;;;9.68;4.70;;;21.70;99.90;;;;;;4124978;28;20034;-68
2022/06/24 01:42:32;;;;;;;8.18;4.18;;;21.70;99.90;;;;;;4121444;28;20081;-69
2022/06/24 01:44:34;;;;;;;11.32;4.75;;;21.60;99.90;;;;;;4125660;28;20061;-68
2022/06/24 01:46:35;;;;;;;8.32;4.00;;;21.70;99.90;;;;;;4125025;28;20429;-68
2022/06/24 01:48:36;;;;;;;7.72;3.72;;;21.60;99.90;;;;;;4118889;28;20049;-69
2022/06/24 01:50:36;;;;;;;7.72;3.97;;;21.60;99.90;;;;;;4127138;28;20073;-68
2022/06/24 01:52:37;;;;;;;6.18;3.75;;;21.60;99.90;;;;;;4128026;28;20113;-69
2022/06/24 01:54:37;;;;;;;8.50;4.10;;;21.70;99.90;;;;;;4127711;28;20058;-69
2022/06/24 01:56:38;;;;;;;8.20;3.97;;;21.70;99.90;;;;;;4127040;28;20053;-70
2022/06/24 01:58:39;;;;;;;6.53;3.83;;;21.70;99.90;;;;;;4126562;28;20065;-69
2022/06/24 02:00:39;;;;;;;9.52;3.88;;;21.80;99.90;;;;;;4126535;28;20387;-68
2022/06/24 02:02:40;;;;;;;7.35;3.50;;;21.80;99.90;;;;;;4127679;28;20042;-68
2022/06/24 02:04:41;;;;;;;7.63;3.78;;;21.80;99.90;;;;;;4127999;28;20030;-68
2022/06/24 02:06:41;;;;;;;6.25;3.33;;;21.80;99.90;;;;;;4126528;28;20042;-68
2022/06/24 02:08:42;;;;;;;6.72;3.83;;;21.90;99.90;;;;;;4127421;28;20109;-68
2022/06/24 02:15:21;;;;;;;6.50;3.80;;;21.90;99.90;;;;;;4126427;28;20058;-68
2022/06/24 02:17:22;;;;;;;8.27;3.90;;;22.00;99.90;;;;;;4127188;28;20033;-68
2022/06/24 02:19:22;;;;;;;4.70;3.20;;;22.00;99.90;;;;;;4127077;28;20038;-69
2022/06/24 02:21:24;;;;;;;7.35;3.30;;;22.10;99.90;;;;;;4127504;28;20034;-69
2022/06/24 02:23:26;;;;;;;7.10;3.25;;;22.10;99.90;;;;;;4128096;28;20037;-70
2022/06/24 02:25:26;;;;;;;4.70;2.90;;;22.10;99.90;;;;;;4127136;28;20092;-68
2022/06/24 02:27:27;;;;;;;4.85;3.22;;;22.20;99.90;;;;;;4127069;28;20046;-67
2022/06/24 02:29:27;;;;;;;7.03;3.38;;;22.20;99.90;;;;;;4127173;28;20041;-68
2022/06/24 02:31:28;;;;;;;5.07;3.25;;;22.20;99.90;;;;;;4127287;28;20118;-68
2022/06/24 02:33:29;;;;;;;4.10;3.10;;;22.30;99.90;;;;;;4127647;28;20030;-68
2022/06/24 02:35:30;;;;;;;5.70;3.33;;;22.30;99.90;;;;;;4127567;28;20117;-68
2022/06/24 02:37:31;;;;;;;5.63;3.33;;;22.40;99.90;;;;;;4126741;28;20049;-69
2022/06/24 02:39:31;;;;;;;5.78;3.50;;;22.40;99.90;;;;;;4127577;28;20035;-69
2022/06/24 02:41:32;;;;;;;5.90;3.13;;;22.40;99.90;;;;;;4127334;28;20061;-68
2022/06/24 02:43:35;;;;;;;5.65;3.80;;;22.40;99.90;;;;;;4110720;28;20034;-68
2022/06/24 02:45:36;;;;;;;5.10;3.22;;;22.40;99.90;;;;;;4126889;28;20375;-68
2022/06/24 02:47:37;;;;;;;3.70;2.90;;;22.40;99.90;;;;;;4126979;28;20040;-68
2022/06/24 02:49:38;;;;;;;8.68;3.72;;;22.50;99.90;;;;;;4127130;28;20043;-69
2022/06/24 02:51:38;;;;;;;4.88;2.80;;;22.50;99.90;;;;;;4110728;28;20522;-69
2022/06/24 02:53:39;;;;;;;5.20;3.80;;;22.50;99.90;;;;;;4127354;28;20034;-68
2022/06/24 02:55:40;;;;;;;4.68;3.55;;;22.50;99.90;;;;;;4126365;28;20034;-68
2022/06/24 02:57:41;;;;;;;6.47;3.42;;;22.50;99.90;;;;;;4127543;28;20030;-68
2022/06/24 02:59:41;;;;;;;4.28;3.08;;;22.50;99.90;;;;;;4127254;28;20049;-69
2022/06/24 03:01:42;;;;;;;3.95;3.05;;;22.50;99.90;;;;;;4127133;28;20026;-69
2022/06/24 03:03:43;;;;;;;3.75;2.83;;;22.50;99.90;;;;;;4127608;28;20539;-68
2022/06/24 03:05:44;;;;;;;5.10;3.05;;;22.60;99.90;;;;;;4125905;28;20035;-69
2022/06/24 03:07:44;;;;;;;4.65;3.25;;;22.60;99.90;;;;;;4124011;28;20089;-69
2022/06/24 03:09:45;;;;;;;4.22;3.00;;;22.60;99.90;;;;;;4126794;28;20571;-69
2022/06/24 03:11:45;;;;;;;4.80;3.53;;;22.70;99.90;;;;;;4129146;28;20070;-69
2022/06/24 03:13:46;;;;;;;6.50;3.80;;;22.70;99.90;;;;;;4130126;28;20038;-69
2022/06/24 03:15:48;;;;;;;5.28;3.22;;;22.60;99.90;;;;;;4128942;28;20165;-69
2022/06/24 03:17:48;;;;;;;2.97;2.65;;;22.60;99.90;;;;;;4130316;28;20038;-68
2022/06/24 03:19:49;;;;;;;4.22;3.00;;;22.60;99.90;;;;;;4130156;28;20416;-68
2022/06/24 03:21:50;;;;;;;4.88;3.40;;;22.60;99.90;;;;;;4130441;28;20034;-69
2022/06/24 03:23:50;;;;;;;3.22;2.78;;;22.60;99.90;;;;;;4129358;28;20030;-68
2022/06/24 03:25:51;;;;;;;3.78;2.85;;;22.60;99.90;;;;;;4129181;28;20639;-69
2022/06/24 03:27:51;;;;;;;3.72;3.25;;;22.60;99.90;;;;;;4131177;28;20038;-68
2022/06/24 03:29:52;;;;;;;4.22;2.97;;;22.60;99.90;;;;;;4130204;28;20431;-69
2022/06/24 03:31:52;;;;;;;4.97;2.85;;;22.70;99.90;;;;;;4129993;28;20026;-69
2022/06/24 03:33:55;;;;;;;4.30;2.53;;;22.70;99.90;;;;;;4129406;28;20030;-69
2022/06/24 03:35:56;;;;;;;;;;;22.70;99.90;;;;;;4129668;28;20035;-69
2022/06/24 03:37:56;;;;;;;3.60;2.90;;;22.70;99.90;;;;;;4130511;28;19917;-69
2022/06/24 03:39:58;;;;;;;3.50;2.78;;;22.70;99.90;;;;;;4129828;28;20027;-69
2022/06/24 03:41:58;;;;;;;3.87;2.60;;;22.70;99.90;;;;;;4131022;28;20121;-69
2022/06/24 03:44:00;;;;;;;2.78;2.30;;;22.70;99.90;;;;;;4129206;28;20054;-69
2022/06/24 03:46:02;;;;;;;6.60;2.75;;;22.70;99.90;;;;;;4130140;28;20046;-68
2022/06/24 03:48:03;;;;;;;3.22;2.90;;;22.70;99.90;;;;;;4130510;28;20046;-69
2022/06/24 03:50:04;;;;;;;3.17;2.47;;;22.70;99.90;;;;;;4129801;28;20042;-70
2022/06/24 03:52:05;;;;;;;4.80;2.15;;;22.60;99.90;;;;;;4130257;28;20129;-69
2022/06/24 03:54:06;;;;;;;3.55;2.33;;;22.60;99.90;;;;;;4129459;28;20034;-69
2022/06/24 03:56:09;;;;;;;3.40;2.38;;;22.50;99.90;;;;;;4129451;28;20038;-69
2022/06/24 03:58:10;;;;;;;3.90;2.10;;;22.50;99.90;;;;;;4130366;28;20049;-69
2022/06/24 04:00:10;;;;;;;3.45;1.67;;;22.40;99.90;;;;;;4129426;28;20042;-70
2022/06/24 04:02:11;;;;;;;1.83;1.65;;;22.40;99.90;;;;;;4128636;28;20047;-69
2022/06/24 04:04:12;;;;;;;2.17;1.75;;;22.40;99.90;;;;;;4128581;28;20092;-70
2022/06/24 04:06:12;;;;;;;2.35;1.65;;;22.40;99.90;;;;;;4129330;28;20117;-69
2022/06/24 04:08:13;;;;;;;2.50;1.70;;;22.40;99.90;;;;;;4130435;28;20084;-69
2022/06/24 04:10:13;;;;;;;4.05;2.22;;;22.50;99.90;;;;;;4128837;28;20041;-70
2022/06/24 04:12:14;;;;;;;2.55;1.60;;;22.30;99.90;;;;;;4127998;28;20030;-69
2022/06/24 04:15:13;;;;;;;3.42;1.58;;;22.30;99.90;;;;;;4127090;28;20038;-70
2022/06/24 04:16:35;;;;;;;4.72;1.40;;;22.20;99.90;;;;;;4129010;28;20034;-70
2022/06/24 04:18:36;;;;;;;6.78;2.13;;;22.20;99.90;;;;;;4129642;28;20141;-70
2022/06/24 04:20:37;;;;;;;2.40;1.65;;;22.20;99.90;;;;;;4127890;28;20092;-70
2022/06/24 04:22:38;;;;;;;3.15;1.70;;;22.10;99.90;;;;;;4124306;28;20478;-70
2022/06/24 04:24:38;;;;;;;3.40;1.60;;;22.10;99.90;;;;;;4127684;28;20031;-70
2022/06/24 04:26:39;;;;;;;4.40;1.60;;;22.10;99.90;;;;;;4127766;28;20042;-69
2022/06/24 04:28:40;;;;;;;1.55;1.40;;;22.10;99.90;;;;;;4126917;28;20023;-70
2022/06/24 04:30:40;;;;;;;1.95;1.10;;;22.10;99.90;;;;;;4127904;28;20045;-69
2022/06/24 04:32:42;;;;;;;3.72;1.35;;;22.20;99.90;;;;;;4128857;28;20065;-69
2022/06/24 04:34:42;;;;;;;3.70;1.20;;;22.20;99.90;;;;;;4128451;28;20401;-70
2022/06/24 04:36:43;;;;;;;0.95;0.85;;;22.20;99.90;;;;;;4128707;28;20027;-70
2022/06/24 04:38:44;;;;;;;1.10;1.00;;;22.20;99.90;;;;;;4129126;28;20026;-69
2022/06/24 04:40:44;;;;;;;1.20;1.10;;;22.20;99.90;;;;;;4126484;28;20046;-70
2022/06/24 04:42:46;;;;;;;1.50;1.23;;;22.20;99.90;;;;;;4126402;28;20393;-70
2022/06/24 04:44:46;;;;;;;1.30;0.90;;;22.20;99.90;;;;;;4129261;28;20046;-70
2022/06/24 04:46:47;;;;;;;1.02;0.93;;;22.30;99.90;;;;;;4128628;28;20027;-69
2022/06/24 04:48:47;;;;;;;1.77;1.13;;;22.20;99.90;;;;;;4128772;28;20084;-69
2022/06/24 04:50:48;;;;;;;1.60;1.10;;;22.20;99.90;;;;;;4125813;28;20034;-69
2022/06/24 04:52:49;;;;;;;1.73;1.00;;;22.30;99.90;;;;;;4125827;28;20045;-69
2022/06/24 04:54:50;;;;;;;2.20;1.10;;;22.30;99.90;;;;;;4127648;28;20509;-70
2022/06/24 04:56:51;;;;;;;1.25;1.05;;;22.20;99.90;;;;;;4129560;28;20022;-69
2022/06/24 04:58:51;;;;;;;1.73;1.23;;;22.30;99.90;;;;;;4127931;28;20042;-69
2022/06/24 05:00:52;;;;;;;2.35;1.25;;;22.30;99.90;;;;;;4126180;28;20178;-69
2022/06/24 05:02:53;;;;;;;2.15;1.30;;;22.30;99.90;;;;;;4128217;28;20042;-70
2022/06/24 05:04:53;;;;;;;1.83;1.30;;;22.30;99.90;;;;;;4128946;28;20043;-70
2022/06/24 05:06:54;;;;;;;2.38;1.40;;;22.30;99.90;;;;;;4128540;28;20038;-69
2022/06/24 05:08:54;;;;;;;1.25;1.15;;;22.30;99.90;;;;;;4132880;28;20037;-69
2022/06/24 05:10:55;;;;;;;1.75;1.15;;;22.30;99.90;;;;;;4127375;28;20049;-69
2022/06/24 05:12:56;;;;;;;1.95;1.73;;;22.30;99.90;;;;;;4128951;28;20367;-71
2022/06/24 05:14:57;;;;;;;3.85;1.38;;;22.30;99.90;;;;;;4128862;28;20402;-71
2022/06/24 05:16:58;;;;;;;1.25;1.10;;;22.30;99.90;;;;;;4127818;28;20104;-71
2022/06/24 05:18:59;;;;;;;3.83;1.60;;;22.30;99.90;;;;;;4128424;28;20474;-70
2022/06/24 05:20:59;;;;;;;1.98;1.30;;;22.30;99.90;;;;;;4127534;28;20030;-71
2022/06/24 05:23:00;;;;;;;1.45;1.35;;;22.30;99.90;;;;;;4126875;28;20066;-70
2022/06/24 05:25:01;;;;;;;1.90;1.50;;;22.20;99.90;;;;;;4127800;28;20030;-70
2022/06/24 05:27:02;;;;;;;1.63;1.30;;;22.20;99.90;;;;;;4121836;28;20027;-70
2022/06/24 05:29:03;;;;;;;3.15;1.33;;;22.20;99.90;;;;;;4128018;28;20047;-70
2022/06/24 05:31:03;;;;;;;4.75;1.55;;;22.20;99.90;;;;;;4122101;28;20042;-69
2022/06/24 05:33:04;;;;;;;1.67;1.40;;;22.10;99.90;;;;;;4125680;28;20486;-70
2022/06/24 05:35:06;;;;;;;1.58;1.30;;;22.10;99.90;;;;;;4122453;28;20508;-71
2022/06/24 05:37:07;;;;;;;2.05;1.30;;;22.00;99.90;;;;;;4123163;28;20494;-71
2022/06/24 05:39:08;;;;;;;1.52;1.10;;;22.00;99.90;;;;;;4123130;28;20274;-72
2022/06/24 05:41:09;;;;;;;1.23;1.10;;;22.00;99.90;;;;;;4121654;28;20509;-71
2022/06/24 05:43:10;;;;;;;4.25;1.38;;;21.90;99.90;;;;;;4123999;28;20054;-72
2022/06/24 05:45:10;;;;;;;2.15;1.13;;;21.90;99.90;;;;;;4123667;28;20524;-71
2022/06/24 05:47:11;;;;;;;1.00;0.90;;;21.90;99.90;;;;;;4121893;28;20042;-70
2022/06/24 05:49:12;;;;;;;3.40;1.33;;;21.90;99.90;;;;;;4122709;28;20038;-72
2022/06/24 05:51:17;;;;;;;2.50;1.25;;;21.80;99.90;;;;;;4122141;28;20542;-69
2022/06/24 05:55:37;;;;;;;1.45;1.35;;;21.80;99.90;;;;;;4120997;28;20035;-70
2022/06/24 05:57:38;;;;;;;2.05;1.40;;;21.80;99.90;;;;;;4121663;28;20046;-70
2022/06/24 05:59:39;;;;;;;2.45;1.42;;;21.70;99.90;;;;;;4120196;28;20031;-71
2022/06/24 06:01:39;;;;;;;2.70;1.48;;;21.70;99.90;;;;;;4122371;28;20126;-70
2022/06/24 06:03:40;;;;;;;2.53;1.30;;;21.70;99.90;;;;;;4121825;28;20802;-70
2022/06/24 06:05:41;;;;;;;2.83;1.20;;;21.70;99.90;;;;;;4124573;28;20053;-70
2022/06/24 06:07:42;;;;;;;3.70;1.45;;;21.70;99.90;;;;;;4121385;28;25075;-71
2022/06/24 06:09:42;;;;;;;3.88;1.30;;;21.60;99.90;;;;;;4119857;28;20046;-70
2022/06/24 06:11:43;;;;;;;1.38;1.10;;;21.60;99.90;;;;;;4121259;28;20111;-70
2022/06/24 06:13:44;;;;;;;2.38;1.33;;;21.60;99.90;;;;;;4121654;28;20446;-70
2022/06/24 06:15:45;;;;;;;1.60;1.10;;;21.60;99.90;;;;;;4122900;28;20038;-70
2022/06/24 06:17:46;;;;;;;1.45;1.15;;;21.50;99.90;;;;;;4121708;28;20034;-70
2022/06/24 06:19:46;;;;;;;1.55;1.25;;;21.50;99.90;;;;;;4123860;28;20039;-71
2022/06/24 06:21:47;;;;;;;2.60;1.65;;;21.50;99.90;;;;;;4124313;28;20038;-71
2022/06/24 06:23:48;;;;;;;3.03;1.70;;;21.50;99.90;;;;;;4123474;28;20133;-70
2022/06/24 06:25:48;;;;;;;13.02;1.40;;;21.40;99.90;;;;;;4120405;28;20037;-71
2022/06/24 06:27:50;;;;;;;4.47;1.20;;;21.40;99.90;;;;;;4122613;28;20306;-71
2022/06/24 06:29:50;;;;;;;1.58;1.20;;;21.30;99.90;;;;;;4123487;28;20072;-70
2022/06/24 06:31:51;;;;;;;2.85;1.65;;;21.20;99.90;;;;;;4121360;28;20031;-71
2022/06/24 06:33:51;;;;;;;2.55;1.42;;;21.20;99.90;;;;;;4118535;28;20047;-71
2022/06/24 06:36:00;;;;;;;2.42;1.70;;;21.00;99.90;;;;;;4120162;28;20478;-72
2022/06/24 06:38:01;;;;;;;2.75;2.00;;;21.00;99.90;;;;;;4122562;28;20101;-71
2022/06/24 06:40:02;;;;;;;4.20;1.60;;;21.00;99.90;;;;;;4120688;28;20418;-71
2022/06/24 06:42:03;;;;;;;2.78;1.40;;;21.00;99.90;;;;;;4123079;28;20039;-71
2022/06/24 06:44:04;;;;;;;6.25;2.17;;;21.00;99.90;;;;;;4118198;28;20074;-71
2022/06/24 06:46:08;;;;;;;2.70;1.88;;;21.00;99.90;;;;;;4119348;28;20046;-71
2022/06/24 06:48:09;;;;;;;2.75;1.58;;;21.00;99.90;;;;;;4122254;28;20065;-71
2022/06/24 06:50:10;;;;;;;4.05;1.55;;;21.00;99.90;;;;;;4123118;28;20042;-72
2022/06/24 06:52:10;;;;;;;2.55;1.77;;;21.00;99.90;;;;;;4121850;28;20096;-72
2022/06/24 06:54:11;;;;;;;2.25;1.58;;;21.00;99.90;;;;;;4123131;28;20042;-72
2022/06/24 06:56:12;;;;;;;1.92;1.52;;;21.10;99.90;;;;;;4128788;28;20056;-71
2022/06/24 06:58:13;;;;;;;2.05;1.45;;;21.10;99.90;;;;;;4130164;28;20034;-72
2022/06/24 07:00:15;;;;;;;3.47;1.35;;;21.10;99.90;;;;;;4134144;28;20042;-70
2022/06/24 07:02:15;;;;;;;2.72;1.60;;;21.20;99.90;;;;;;4131121;28;20048;-70
2022/06/24 07:04:16;;;;;;;2.05;1.40;;;21.30;99.90;;;;;;4132892;28;20498;-70
2022/06/24 07:06:16;;;;;;;3.80;1.50;;;21.30;99.90;;;;;;4130011;28;20449;-70
2022/06/24 07:08:17;;;;;;;5.50;1.95;;;21.40;99.90;;;;;;4130994;28;20454;-71
2022/06/24 07:10:18;;;;;;;2.97;1.58;;;21.40;99.90;;;;;;4128674;28;22352;-72
2022/06/24 07:12:18;;;;;;;1.88;1.58;;;21.40;99.90;;;;;;4130474;28;20557;-70
2022/06/24 07:14:19;;;;;;;2.55;1.50;;;21.30;99.90;;;;;;4130553;28;20034;-70
2022/06/24 07:16:19;;;;;;;2.17;1.70;;;21.20;99.90;;;;;;4130033;28;20038;-70
2022/06/24 07:18:20;;;;;;;3.47;2.20;;;21.20;99.90;;;;;;4130874;28;20023;-71
2022/06/24 07:20:21;;;;;;;5.20;1.77;;;21.10;99.90;;;;;;4129855;28;20077;-71
2022/06/24 07:22:21;;;;;;;3.10;1.58;;;21.20;99.90;;;;;;4125996;28;20039;-70
2022/06/24 07:24:22;;;;;;;3.35;1.52;;;21.20;99.90;;;;;;4128978;28;20033;-70
2022/06/24 07:26:22;;;;;;;7.70;1.85;;;21.30;99.90;;;;;;4129699;28;20121;-70
2022/06/24 07:28:25;;;;;;;2.72;1.33;;;21.20;99.90;;;;;;4130610;28;20037;-70
2022/06/24 07:30:26;;;;;;;1.77;1.35;;;21.30;99.90;;;;;;4130041;28;20374;-70
2022/06/24 07:32:26;;;;;;;2.20;1.50;;;21.30;99.90;;;;;;4130558;28;20034;-70
2022/06/24 07:34:30;;;;;;;3.42;1.75;;;21.40;99.90;;;;;;4130050;28;20057;-69
2022/06/24 07:36:31;;;;;;;4.88;1.80;;;21.30;99.90;;;;;;4129348;28;20034;-70
2022/06/24 07:38:32;;;;;;;1.60;1.40;;;21.30;99.90;;;;;;4130130;28;20478;-70
2022/06/24 07:40:33;;;;;;;3.33;1.55;;;21.30;99.90;;;;;;4132356;28;20046;-70
2022/06/24 07:42:35;;;;;;;2.55;1.45;;;21.20;99.90;;;;;;4130372;28;20038;-70
2022/06/24 07:44:35;;;;;;;2.85;1.83;;;21.30;99.90;;;;;;4129708;28;20030;-71
2022/06/24 07:46:36;;;;;;;4.60;1.30;;;21.30;99.90;;;;;;4131727;28;20038;-71
2022/06/24 07:48:37;;;;;;;3.38;1.67;;;21.30;99.90;;;;;;4130471;28;20577;-72
2022/06/24 07:50:38;;;;;;;5.78;1.80;;;21.30;99.90;;;;;;4129440;28;20042;-71
2022/06/24 07:52:38;;;;;;;2.55;1.70;;;21.30;99.90;;;;;;4129361;28;20502;-72
2022/06/24 07:54:39;;;;;;;2.53;1.70;;;21.30;99.90;;;;;;4129068;28;20034;-72
2022/06/24 07:56:58;;;;;;;1.45;1.33;;;21.30;99.90;;;;;;4128504;28;21903;-72
2022/06/24 07:58:59;;;;;;;2.33;1.63;;;21.30;99.90;;;;;;4129634;28;20121;-71
2022/06/24 08:01:01;;;;;;;2.63;1.75;;;21.30;99.90;;;;;;4126720;28;20054;-72
2022/06/24 08:03:01;;;;;;;1.90;1.53;;;21.30;99.90;;;;;;4130103;28;20058;-72
2022/06/24 08:05:02;;;;;;;4.47;1.80;;;21.30;99.90;;;;;;4128934;28;20047;-73
2022/06/24 08:07:04;;;;;;;2.83;1.63;;;21.30;99.90;;;;;;4129244;28;20202;-72
2022/06/24 08:09:05;;;;;;;3.40;1.77;;;21.30;99.90;;;;;;4129227;28;20038;-72
2022/06/24 08:11:06;;;;;;;2.42;1.35;;;21.30;99.90;;;;;;4129220;28;20092;-72
2022/06/24 08:13:07;;;;;;;5.03;2.17;;;21.30;99.90;;;;;;4130106;28;20039;-72
2022/06/24 08:15:07;;;;;;;3.03;2.05;;;21.30;99.90;;;;;;4129667;28;20543;-73
2022/06/24 08:17:08;;;;;;;2.95;2.10;;;21.30;99.90;;;;;;4130039;28;20121;-72
2022/06/24 08:19:09;;;;;;;2.40;1.73;;;21.20;99.90;;;;;;4122295;28;20062;-72
2022/06/24 08:21:10;;;;;;;3.53;1.92;;;21.30;99.90;;;;;;4128552;28;20039;-72
2022/06/24 08:23:10;;;;;;;2.92;1.90;;;21.30;99.90;;;;;;4128575;28;21269;-72
2022/06/24 08:25:11;;;;;;;5.30;2.10;;;21.30;99.90;;;;;;4127863;28;20100;-72
2022/06/24 08:27:12;;;;;;;2.80;2.00;;;21.30;99.90;;;;;;4129722;28;20528;-72
2022/06/24 08:29:13;;;;;;;4.63;2.53;;;21.30;99.90;;;;;;4129837;28;20100;-72
2022/06/24 08:31:13;;;;;;;3.30;2.30;;;21.30;99.90;;;;;;4129126;28;20182;-72
2022/06/24 08:33:14;;;;;;;4.53;2.58;;;21.40;99.90;;;;;;4129482;28;20046;-72
2022/06/24 08:35:14;;;;;;;3.17;2.00;;;21.40;99.90;;;;;;4128820;28;20089;-72
2022/06/24 08:37:15;;;;;;;3.75;2.08;;;21.50;99.90;;;;;;4132244;28;20050;-72
2022/06/24 08:39:16;;;;;;;3.83;2.10;;;21.40;99.90;;;;;;4128423;28;20520;-72
2022/06/24 08:41:24;;;;;;;2.05;1.77;;;21.40;99.90;;;;;;4128939;28;20040;-72
2022/06/24 08:43:29;;;;;;;4.03;2.50;;;21.40;99.90;;;;;;4125076;28;20441;-72
2022/06/24 08:45:29;;;;;;;2.25;2.03;;;21.40;99.90;;;;;;4128149;28;20038;-72
2022/06/24 08:47:30;;;;;;;4.82;2.28;;;21.40;99.90;;;;;;4130468;28;20092;-72
2022/06/24 08:49:34;;;;;;;3.40;2.10;;;21.40;99.90;;;;;;4128907;28;20499;-72
2022/06/24 08:51:35;;;;;;;2.80;2.50;;;21.40;99.90;;;;;;4126713;28;20031;-72
2022/06/24 08:53:37;;;;;;;4.75;2.70;;;21.50;99.90;;;;;;4129020;28;20105;-72
2022/06/24 08:55:40;;;;;;;2.85;2.38;;;21.40;99.90;;;;;;4128805;28;20045;-72
2022/06/24 08:57:40;;;;;;;;;;;21.50;99.90;;;;;;4129154;28;20033;-72
2022/06/24 08:59:45;;;;;;;4.50;2.90;;;21.50;99.90;;;;;;4129294;28;19941;-72
2022/06/24 09:01:47;;;;;;;6.25;2.85;;;21.50;99.90;;;;;;4128625;28;20235;-72
2022/06/24 09:03:48;;;;;;;2.60;2.40;;;21.50;99.90;;;;;;4128216;28;20023;-72
2022/06/24 09:05:49;;;;;;;3.20;2.53;;;21.40;99.90;;;;;;4127740;28;20154;-72
2022/06/24 09:08:02;;;;;;;2.63;2.38;;;21.50;99.90;;;;;;4129261;28;20026;-72
2022/06/24 09:10:11;;;;;;;3.40;2.63;;;21.50;99.90;;;;;;4126925;28;20034;-72
2022/06/24 09:12:12;;;;;;;2.85;2.33;;;21.60;99.90;;;;;;4127217;28;20034;-72
2022/06/24 09:14:13;;;;;;;4.30;2.35;;;21.50;99.90;;;;;;4127248;28;20599;-72
2022/06/24 09:16:17;;;;;;;4.03;2.28;;;21.60;99.90;;;;;;4127216;28;20038;-72
2022/06/24 09:18:23;;;;;;;3.50;2.72;;;21.60;99.90;;;;;;4130599;28;20130;-72
2022/06/24 09:20:28;;;;;;;3.63;2.17;;;21.60;99.90;;;;;;4126702;28;20122;-72
2022/06/24 09:22:29;;;;;;;2.83;1.85;;;21.60;99.90;;;;;;4128545;28;20030;-72
2022/06/24 09:24:47;;;;;;;6.05;2.53;;;21.60;99.90;;;;;;4127590;28;20100;-72
2022/06/24 09:26:48;;;;;;;2.53;2.10;;;21.70;99.90;;;;;;4123914;28;20409;-72
2022/06/24 09:28:55;;;;;;;3.85;2.97;;;21.60;99.90;;;;;;4128089;28;20067;-72
2022/06/24 09:31:00;;;;;;;4.13;2.40;;;21.70;99.90;;;;;;4126759;28;20040;-72
2022/06/24 09:33:01;;;;;;;3.30;2.60;;;21.70;99.90;;;;;;4127622;28;20121;-72
2022/06/24 09:35:07;;;;;;;2.80;2.05;;;21.70;99.90;;;;;;4128523;28;20509;-72
2022/06/24 09:37:08;;;;;;;3.22;2.28;;;21.70;99.90;;;;;;4126891;28;20497;-72
2022/06/24 09:39:11;;;;;;;3.70;2.08;;;21.70;99.90;;;;;;4131965;28;20026;-71
2022/06/24 09:41:11;;;;;;;2.00;1.80;;;21.70;99.90;;;;;;4127020;28;20030;-72
2022/06/24 09:43:13;;;;;;;4.32;1.92;;;21.70;99.90;;;;;;4127936;28;20050;-73
2022/06/24 09:45:13;;;;;;;2.63;2.00;;;21.70;99.90;;;;;;4126648;28;20401;-73
2022/06/24 09:47:14;;;;;;;1.92;1.73;;;21.70;99.90;;;;;;4123081;28;20035;-72
2022/06/24 09:49:17;;;;;;;2.53;1.88;;;21.70;99.90;;;;;;4123565;28;20038;-72
2022/06/24 09:51:18;;;;;;;2.78;1.85;;;21.70;99.90;;;;;;4124163;28;20054;-72
2022/06/24 09:53:19;;;;;;;2.85;2.40;;;21.70;99.90;;;;;;4121839;28;20117;-72
2022/06/24 09:55:22;;;;;;;5.22;3.17;;;21.80;99.90;;;;;;4122623;28;20035;-73
2022/06/24 09:57:23;;;;;;;2.75;2.05;;;21.80;99.90;;;;;;4121245;28;20113;-72
2022/06/24 10:01:45;;;;;;;2.67;2.03;;;21.90;99.90;;;;;;4120787;28;20030;-72
2022/06/24 10:03:49;;;;;;;4.50;2.67;;;22.00;99.90;;;;;;4123446;28;20041;-72
2022/06/24 10:05:52;;;;;;;3.42;2.67;;;22.00;99.90;;;;;;4123669;28;20042;-72
2022/06/24 10:07:53;;;;;;;;;;;22.10;99.90;;;;;;4121843;28;20040;-73
2022/06/24 10:09:55;;;;;;;4.40;2.58;;;22.20;99.90;;;;;;4122156;28;19922;-73
2022/06/24 10:11:57;;;;;;;4.00;3.60;;;22.30;99.90;;;;;;4123654;28;20069;-73
2022/06/24 10:13:59;;;;;;;5.38;3.05;;;22.40;99.90;;;;;;4122193;28;20074;-73
2022/06/24 10:16:05;;;;;;;3.70;3.17;;;22.40;99.90;;;;;;4120395;28;20074;-73
2022/06/24 10:18:08;;;;;;;7.75;3.85;;;22.50;99.90;;;;;;4120457;28;20034;-73
2022/06/24 10:20:13;;;;;;;4.22;3.60;;;22.60;99.90;;;;;;4121422;28;20038;-73
2022/06/24 10:22:36;;;;;;;6.45;4.35;;;22.60;99.90;;;;;;4123648;28;20508;-73
2022/06/24 10:24:41;;;;;;;5.05;2.88;;;22.70;99.90;;;;;;4125380;28;20027;-73
2022/06/24 10:26:47;;;;;;;4.40;3.33;;;22.80;99.90;;;;;;4112100;28;20122;-73
2022/06/24 10:28:59;;;;;;;3.20;2.90;;;22.90;99.90;;;;;;4125610;28;20043;-73
2022/06/24 10:31:00;;;;;;;3.25;2.95;;;23.00;99.90;;;;;;4126052;28;20319;-73
2022/06/24 10:33:15;;;;;;;3.85;3.30;;;23.10;99.90;;;;;;4128246;28;20129;-73
2022/06/24 10:35:15;;;;;;;5.10;3.00;;;23.20;99.90;;;;;;4126794;28;20030;-73
2022/06/24 10:37:16;;;;;;;5.18;3.50;;;23.30;99.90;;;;;;4127762;28;20049;-73
2022/06/24 10:39:19;;;;;;;3.53;3.10;;;23.40;99.90;;;;;;4127236;28;20050;-73
2022/06/24 10:41:35;;;;;;;;;;;23.40;99.90;;;;;;4127092;28;20437;-73
2022/06/24 10:43:41;;;;;;;4.13;3.70;;;23.50;99.90;;;;;;4125811;28;20373;-73
2022/06/24 10:45:41;;;;;;;3.47;3.17;;;23.50;99.90;;;;;;4123863;28;20401;-73